メインページ
METAR-TAF:

METAR-TAF

空港 :

ラスベガス, ネバダ州, アメリカ合衆国

マッカラン国際空港

緯度: 36-04-44N, 経度: 115-09-19W, 海抜: 663m

現時点の気象観測

当レポートは1時間2分前の10:56(UTC)に作成
変向風 5kt
気温 22°C
湿度 15%
気圧 1008 hPa
視程: 16.1km
高度22000ftの千切れ雲あり

METAR: KLAS 231056Z VRB05KT 10SM BKN220 22/M06 A2976 RMK AO2 SLP056 T02171061

時間: 04:58 (11:58 UTC)

予報

当レポートは32分前の11:26(UTC)に作成
予報は23日の 12時(UTC)から 24日の 12時(UTC)まで有効
南/南西の風 8kt
視程: 10km
高度25000ftの千切れ雲あり
23日の 1700時(UTC)から
南/南西の風 15kt、最大25ktの突風を伴う
視程: 10km
高度25000ftの雲は散在している
23日の 2100時(UTC)から
南西の風 22kt、最大32ktの突風を伴う
視程: 10km
高度25000ftの雲は散在している
24日の 0200時(UTC)から
南西の風 14kt、最大24ktの突風を伴う
視程: 10km
高度25000ftの雲は散在している

TAF: KLAS 231126Z 2312/2412 20008KT P6SM BKN250 FM231700 20015G25KT P6SM SCT250 FM232100 22022G32KT P6SM SCT250 FM240200 22014G24KT P6SM SCT250

4,000以上の空港の気象観測と天気予報(METAR報とTAF報)

利用可能な観測所は地図上に黄色い丸と赤い丸で示す。

丸の上にカーソルを重ねると観測所名を参照できる。

次にクリックすると気象観測と天気予報を参照できる。

マップの切り替え:黒色「×」印の緑ボタンをクリックして拡大、「-」印の緑ボタンをクリックして縮小、緑色の三角印をクリックして隣りの地図に切り替え


METAR-TAF: